createdAt,value
2022-09-27T00:00:16.757Z,26.73
2022-09-27T00:00:38.996Z,31.05
2022-09-27T00:01:07.867Z,54.50
2022-09-27T00:01:29.990Z,31.67
2022-09-27T00:01:52.043Z,28.58
2022-09-27T00:02:15.237Z,32.20
2022-09-27T00:02:37.182Z,30.50
2022-09-27T00:02:59.557Z,41.05
2022-09-27T00:03:21.601Z,50.70
2022-09-27T00:03:43.476Z,45.33
2022-09-27T00:04:08.625Z,33.05
2022-09-27T00:04:30.519Z,31.20
2022-09-27T00:04:53.442Z,35.10
2022-09-27T00:05:18.335Z,56.40
2022-09-27T00:05:40.726Z,89.20
2022-09-27T00:06:08.643Z,43.70
2022-09-27T00:06:39.901Z,80.88
2022-09-27T00:07:02.839Z,39.47
2022-09-27T00:07:25.219Z,27.60
2022-09-27T00:07:47.205Z,74.43
2022-09-27T00:08:12.583Z,56.22
2022-09-27T00:08:36.230Z,30.90
2022-09-27T00:09:01.692Z,29.33
2022-09-27T00:09:23.866Z,27.65
2022-09-27T00:09:45.669Z,25.95
2022-09-27T00:10:08.935Z,26.17
2022-09-27T00:10:34.641Z,36.25
2022-09-27T00:11:08.093Z,30.83
2022-09-27T00:11:32.392Z,27.95
2022-09-27T00:11:54.295Z,58.28
2022-09-27T00:12:16.326Z,31.45
2022-09-27T00:12:40.854Z,34.35
2022-09-27T00:13:02.987Z,54.40
2022-09-27T00:13:24.868Z,65.43
2022-09-27T00:13:49.881Z,36.20
2022-09-27T00:14:15.117Z,94.10
2022-09-27T00:14:37.056Z,100.37
2022-09-27T00:15:02.349Z,42.00
2022-09-27T00:15:24.333Z,38.33
2022-09-27T00:15:46.333Z,34.50
2022-09-27T00:16:09.719Z,47.30
2022-09-27T00:16:35.183Z,60.00
2022-09-27T00:16:57.176Z,69.90
2022-09-27T00:17:19.264Z,38.03
2022-09-27T00:17:41.397Z,67.00
2022-09-27T00:18:05.584Z,55.30
2022-09-27T00:18:30.308Z,93.63
2022-09-27T00:18:52.484Z,52.75
2022-09-27T00:19:23.363Z,94.05
2022-09-27T00:19:46.490Z,74.32
2022-09-27T00:20:09.609Z,73.65
2022-09-27T00:20:31.775Z,65.45
2022-09-27T00:20:53.777Z,119.78
2022-09-27T00:21:15.782Z,60.45
2022-09-27T00:21:38.881Z,27.55
2022-09-27T00:22:02.249Z,65.35
2022-09-27T00:22:27.404Z,70.93
2022-09-27T00:22:52.741Z,86.65
2022-09-27T00:23:14.741Z,49.78
2022-09-27T00:23:39.445Z,90.63
2022-09-27T00:24:03.281Z,84.40
2022-09-27T00:24:25.177Z,58.42
2022-09-27T00:24:49.426Z,86.82
2022-09-27T00:25:11.331Z,56.13
2022-09-27T00:25:33.221Z,51.22
2022-09-27T00:25:56.994Z,34.10
2022-09-27T00:26:19.018Z,34.70
2022-09-27T00:26:49.539Z,50.70
2022-09-27T00:27:11.477Z,31.50
2022-09-27T00:27:34.301Z,30.65
2022-09-27T00:28:01.437Z,26.95
2022-09-27T00:28:27.037Z,28.67
2022-09-27T00:28:52.251Z,30.83
2022-09-27T00:29:15.650Z,51.20
2022-09-27T00:29:39.815Z,36.80
2022-09-27T00:30:02.350Z,22.73
2022-09-27T00:30:25.264Z,35.88
2022-09-27T00:30:48.276Z,42.17
2022-09-27T00:31:22.864Z,48.00
2022-09-27T00:31:45.146Z,32.17
2022-09-27T00:32:07.170Z,38.45
2022-09-27T00:32:29.221Z,47.78
2022-09-27T00:32:53.038Z,33.20
2022-09-27T00:33:14.954Z,38.78
2022-09-27T00:33:36.927Z,34.08
2022-09-27T00:34:01.882Z,35.63
2022-09-27T00:34:25.931Z,34.00
2022-09-27T00:34:47.976Z,51.35
2022-09-27T00:35:10.531Z,40.92
2022-09-27T00:35:32.591Z,36.50
2022-09-27T00:35:54.954Z,34.67
2022-09-27T00:36:19.828Z,25.98
2022-09-27T00:36:44.078Z,27.30
2022-09-27T00:37:06.558Z,41.88
2022-09-27T00:37:28.503Z,46.38
2022-09-27T00:37:50.341Z,40.72
2022-09-27T00:38:13.036Z,43.13
2022-09-27T00:38:34.953Z,35.90
2022-09-27T00:39:01.048Z,47.03
2022-09-27T00:39:26.173Z,48.50
2022-09-27T00:39:48.102Z,38.47
2022-09-27T00:40:10.478Z,32.70
2022-09-27T00:40:32.713Z,35.88
2022-09-27T00:40:56.889Z,35.35
2022-09-27T00:41:35.255Z,37.83
2022-09-27T00:41:57.322Z,24.67
2022-09-27T00:42:19.418Z,26.48
2022-09-27T00:42:41.305Z,25.75
2022-09-27T00:43:05.705Z,24.25
2022-09-27T00:43:45.329Z,26.38
2022-09-27T00:44:33.845Z,36.70
2022-09-27T00:45:02.374Z,41.85
2022-09-27T00:45:24.607Z,47.33
2022-09-27T00:46:00.489Z,38.63
2022-09-27T00:46:41.563Z,70.78
2022-09-27T00:47:29.201Z,62.40
2022-09-27T00:47:56.936Z,31.45
2022-09-27T00:48:35.055Z,43.67
2022-09-27T00:49:18.033Z,31.05
2022-09-27T00:49:53.885Z,26.42
2022-09-27T00:50:46.871Z,20.67
2022-09-27T00:51:12.714Z,26.00
2022-09-27T00:51:41.065Z,26.73
2022-09-27T00:52:24.856Z,33.13
2022-09-27T00:52:58.476Z,22.63
2022-09-27T00:53:34.350Z,23.98
2022-09-27T00:54:00.459Z,22.38
2022-09-27T00:54:27.098Z,18.38
2022-09-27T00:54:56.025Z,30.90
2022-09-27T00:55:29.400Z,25.98
2022-09-27T00:55:57.986Z,25.25
2022-09-27T00:56:25.769Z,28.65
2022-09-27T00:56:50.124Z,22.77
2022-09-27T00:57:12.293Z,23.10
2022-09-27T00:57:40.299Z,24.20
2022-09-27T00:58:05.255Z,29.25
2022-09-27T00:58:40.090Z,31.60
2022-09-27T00:59:21.807Z,25.33
2022-09-27T00:59:48.500Z,22.15
2022-09-27T01:00:15.126Z,29.58
2022-09-27T01:00:42.602Z,30.95
2022-09-27T01:01:16.360Z,23.00
2022-09-27T01:01:38.898Z,22.42
2022-09-27T01:02:02.025Z,23.27
2022-09-27T01:02:24.026Z,27.55
2022-09-27T01:02:56.933Z,32.80
2022-09-27T01:03:36.500Z,29.65
2022-09-27T01:04:24.037Z,23.15
2022-09-27T01:04:54.248Z,25.25
2022-09-27T01:05:19.788Z,31.30
2022-09-27T01:05:42.452Z,24.08
2022-09-27T01:06:08.413Z,24.58
2022-09-27T01:06:31.046Z,18.83
2022-09-27T01:06:53.105Z,18.25
2022-09-27T01:07:19.253Z,19.67
2022-09-27T01:07:42.209Z,24.05
2022-09-27T01:08:04.165Z,15.80
2022-09-27T01:08:26.209Z,25.80
2022-09-27T01:08:49.292Z,26.30
2022-09-27T01:09:16.054Z,24.15
2022-09-27T01:09:42.428Z,24.80
2022-09-27T01:10:07.415Z,21.95
2022-09-27T01:10:37.476Z,18.00
2022-09-27T01:11:36.556Z,29.45
2022-09-27T01:12:21.247Z,24.73
2022-09-27T01:12:48.405Z,21.63
2022-09-27T01:16:55.179Z,33.90
2022-09-27T01:17:38.198Z,29.60
2022-09-27T01:18:17.949Z,26.30
2022-09-27T01:19:04.891Z,26.50
2022-09-27T01:19:29.424Z,24.60
2022-09-27T01:20:11.566Z,26.50
2022-09-27T01:21:08.740Z,26.63
2022-09-27T01:21:59.453Z,18.23
2022-09-27T01:22:28.454Z,23.73
2022-09-27T01:23:03.953Z,27.50
2022-09-27T01:23:52.120Z,30.60
2022-09-27T01:24:22.983Z,20.55
2022-09-27T01:25:00.437Z,22.42
2022-09-27T01:25:43.357Z,22.20
2022-09-27T01:26:30.018Z,24.50
2022-09-27T01:27:00.899Z,32.47
2022-09-27T01:28:02.869Z,23.60
2022-09-27T01:28:51.502Z,21.92
2022-09-27T01:29:53.430Z,17.80
2022-09-27T01:30:25.800Z,25.67
2022-09-27T01:31:12.407Z,19.08
2022-09-27T01:31:55.195Z,21.80
2022-09-27T01:32:26.789Z,20.73
2022-09-27T01:33:21.013Z,30.92
2022-09-27T01:33:49.498Z,31.80
2022-09-27T01:34:21.831Z,17.13
2022-09-27T01:35:02.856Z,23.55
2022-09-27T01:35:48.160Z,17.73
2022-09-27T01:36:10.095Z,26.33
2022-09-27T01:36:51.153Z,19.77
2022-09-27T01:37:32.491Z,18.60
2022-09-27T01:38:16.028Z,18.02
2022-09-27T01:38:57.178Z,18.02
2022-09-27T01:39:19.069Z,24.30
2022-09-27T01:39:50.124Z,29.33
2022-09-27T01:40:33.171Z,19.60
2022-09-27T01:41:02.578Z,16.52
2022-09-27T01:41:43.287Z,20.25
2022-09-27T01:42:22.040Z,38.85
2022-09-27T01:43:15.319Z,28.27
2022-09-27T01:43:44.980Z,18.13
2022-09-27T01:44:31.204Z,17.95
2022-09-27T01:45:25.246Z,19.77
2022-09-27T01:46:11.173Z,33.13
2022-09-27T01:46:45.175Z,16.50
2022-09-27T01:47:18.124Z,12.80
2022-09-27T01:47:45.728Z,20.60
2022-09-27T01:48:35.910Z,18.30
2022-09-27T01:49:06.765Z,19.42
2022-09-27T01:49:39.654Z,14.65
2022-09-27T01:50:18.108Z,16.88
2022-09-27T01:50:46.586Z,16.52
2022-09-27T01:51:14.623Z,19.27
2022-09-27T01:51:51.928Z,17.73
2022-09-27T01:52:17.376Z,22.92
2022-09-27T01:53:11.630Z,29.52
2022-09-27T01:53:44.249Z,19.60
2022-09-27T01:54:08.987Z,19.33
2022-09-27T01:54:54.321Z,11.63
2022-09-27T01:55:22.397Z,14.40
2022-09-27T01:55:49.566Z,19.05
2022-09-27T01:56:23.509Z,23.73
2022-09-27T01:56:52.840Z,21.38
2022-09-27T01:57:21.231Z,19.33
2022-09-27T01:57:49.325Z,17.98
2022-09-27T01:58:36.045Z,14.50
2022-09-27T01:59:35.873Z,18.90
2022-09-27T02:00:02.492Z,14.27
2022-09-27T02:00:25.418Z,28.25
2022-09-27T02:00:49.914Z,25.52
2022-09-27T02:01:17.202Z,13.45
2022-09-27T02:01:42.728Z,16.88
2022-09-27T02:02:12.197Z,25.83
2022-09-27T02:02:49.318Z,19.90
2022-09-27T02:03:16.472Z,15.52
2022-09-27T02:03:44.197Z,20.95
2022-09-27T02:04:12.500Z,12.43
2022-09-27T02:04:38.342Z,20.13
2022-09-27T02:05:03.068Z,17.60
2022-09-27T02:05:34.237Z,16.92
2022-09-27T02:06:01.693Z,20.20
2022-09-27T02:06:31.280Z,19.75
2022-09-27T02:06:59.996Z,15.43
2022-09-27T02:07:51.056Z,17.60
2022-09-27T02:08:32.952Z,22.63
2022-09-27T02:09:05.559Z,11.63
2022-09-27T02:09:30.781Z,20.77
2022-09-27T02:10:09.997Z,18.35
2022-09-27T02:10:37.768Z,15.18
2022-09-27T02:11:01.839Z,12.02
2022-09-27T02:11:23.686Z,13.20
2022-09-27T02:11:56.089Z,12.05
2022-09-27T02:12:28.613Z,15.85
2022-09-27T02:13:08.353Z,19.20
2022-09-27T02:13:48.551Z,14.38
2022-09-27T02:14:31.310Z,13.07
2022-09-27T02:14:54.640Z,14.82
2022-09-27T02:15:16.766Z,21.00
2022-09-27T02:16:05.052Z,14.32
2022-09-27T02:16:54.516Z,19.88
2022-09-27T02:17:43.432Z,12.85
2022-09-27T02:18:19.530Z,14.98
2022-09-27T02:18:59.469Z,10.70
2022-09-27T02:19:43.804Z,17.85
2022-09-27T02:20:14.141Z,17.45
2022-09-27T02:20:40.217Z,22.35
2022-09-27T02:21:06.975Z,14.15
2022-09-27T02:21:43.126Z,15.80
2022-09-27T02:22:07.546Z,13.40
2022-09-27T02:22:39.032Z,10.77
2022-09-27T02:23:16.929Z,18.27
2022-09-27T02:24:01.608Z,13.60
2022-09-27T02:24:34.973Z,18.08
2022-09-27T02:25:11.040Z,20.05
2022-09-27T02:25:46.130Z,15.07
2022-09-27T02:26:27.588Z,11.02
2022-09-27T02:26:58.086Z,15.25
2022-09-27T02:27:50.964Z,20.15
2022-09-27T02:28:17.508Z,10.15
2022-09-27T02:28:58.355Z,13.32
2022-09-27T02:29:26.656Z,12.10
2022-09-27T02:30:06.406Z,19.90
2022-09-27T02:30:28.435Z,16.00
2022-09-27T02:30:50.907Z,13.95
2022-09-27T02:31:12.860Z,12.55
2022-09-27T02:31:37.997Z,10.60
2022-09-27T02:32:02.360Z,12.80
2022-09-27T02:32:24.242Z,16.83
2022-09-27T02:32:46.701Z,11.52
2022-09-27T02:33:09.456Z,19.20
2022-09-27T02:33:52.781Z,11.82
2022-09-27T02:34:24.145Z,10.40
2022-09-27T02:34:47.769Z,11.73
2022-09-27T02:35:18.842Z,13.43
2022-09-27T02:35:43.784Z,13.82
2022-09-27T02:36:11.646Z,13.65
2022-09-27T02:36:38.974Z,24.55
2022-09-27T02:37:03.580Z,17.00
2022-09-27T02:37:25.496Z,11.45
2022-09-27T02:37:48.008Z,11.63
2022-09-27T02:38:10.846Z,17.75
2022-09-27T02:38:33.181Z,18.20
2022-09-27T02:38:55.224Z,13.70
2022-09-27T02:39:18.470Z,13.02
2022-09-27T02:39:43.207Z,11.98
2022-09-27T02:40:06.017Z,21.10
2022-09-27T02:40:42.454Z,20.98
2022-09-27T02:41:04.455Z,11.68
2022-09-27T02:41:26.299Z,11.75
2022-09-27T02:41:48.249Z,11.23
2022-09-27T02:42:13.583Z,10.30
2022-09-27T02:42:38.485Z,11.38
2022-09-27T02:43:02.570Z,12.23
2022-09-27T02:43:29.117Z,13.98
2022-09-27T02:43:56.273Z,25.15
2022-09-27T02:44:23.391Z,21.70
2022-09-27T02:44:54.310Z,21.33
2022-09-27T02:45:18.457Z,19.73
2022-09-27T02:45:54.850Z,12.77
2022-09-27T02:46:47.750Z,12.02
2022-09-27T02:47:32.441Z,17.73
2022-09-27T02:48:09.619Z,13.07
2022-09-27T02:48:48.270Z,15.23
2022-09-27T02:49:43.457Z,30.05
2022-09-27T02:50:19.641Z,13.70
2022-09-27T02:51:07.521Z,12.60
2022-09-27T02:51:52.122Z,20.75
2022-09-27T02:52:36.124Z,14.13
2022-09-27T02:53:35.701Z,11.55
2022-09-27T02:54:19.193Z,12.57
2022-09-27T02:55:21.728Z,22.60
2022-09-27T02:56:12.161Z,20.20
2022-09-27T02:57:03.984Z,9.07
2022-09-27T02:58:04.504Z,10.38
2022-09-27T02:58:52.546Z,11.45
2022-09-27T02:59:39.010Z,14.82
2022-09-27T03:00:12.420Z,11.45
2022-09-27T03:00:48.093Z,10.90
2022-09-27T03:01:37.718Z,10.02
2022-09-27T03:02:32.692Z,12.65
2022-09-27T03:03:36.684Z,8.27
2022-09-27T03:04:24.703Z,20.00
2022-09-27T03:04:56.058Z,8.77
2022-09-27T03:05:25.621Z,17.98
2022-09-27T03:05:59.047Z,14.73
2022-09-27T03:06:24.636Z,9.05
2022-09-27T03:06:47.982Z,14.52
2022-09-27T03:07:14.110Z,16.95
2022-09-27T03:07:38.577Z,14.77
2022-09-27T03:08:01.004Z,11.20
2022-09-27T03:08:27.942Z,10.38
2022-09-27T03:08:50.638Z,9.32
2022-09-27T03:09:25.527Z,11.77
2022-09-27T03:09:52.214Z,7.40
2022-09-27T03:10:19.867Z,8.45
2022-09-27T03:10:42.232Z,9.20
2022-09-27T03:11:04.486Z,8.88
2022-09-27T03:11:29.442Z,11.90
2022-09-27T03:11:51.892Z,10.10
2022-09-27T03:12:14.338Z,10.45
2022-09-27T03:12:37.759Z,14.02
2022-09-27T03:12:59.972Z,23.30
2022-09-27T03:13:21.818Z,12.43
2022-09-27T03:14:07.287Z,13.13
2022-09-27T03:14:29.263Z,12.40
2022-09-27T03:14:51.908Z,10.73
2022-09-27T03:15:16.827Z,9.20
2022-09-27T03:15:38.680Z,15.93
2022-09-27T03:16:01.891Z,27.83
2022-09-27T03:16:24.077Z,13.27
2022-09-27T03:16:47.836Z,13.07
2022-09-27T03:17:09.894Z,7.68
2022-09-27T03:17:33.256Z,9.38
2022-09-27T03:17:55.154Z,15.50
2022-09-27T03:18:17.138Z,45.67
2022-09-27T03:18:39.140Z,18.10
2022-09-27T03:19:02.797Z,10.15
2022-09-27T03:19:28.252Z,25.75
2022-09-27T03:19:50.430Z,27.48
2022-09-27T03:20:12.434Z,11.97
2022-09-27T03:20:35.126Z,12.53
2022-09-27T03:20:57.243Z,16.58
2022-09-27T03:21:19.218Z,12.52
2022-09-27T03:21:43.296Z,12.45
2022-09-27T03:22:05.363Z,14.55
2022-09-27T03:22:27.255Z,15.98
2022-09-27T03:22:50.100Z,15.00
2022-09-27T03:23:12.823Z,8.37
2022-09-27T03:23:35.063Z,14.40
2022-09-27T03:23:57.147Z,14.50
2022-09-27T03:24:21.144Z,10.82
2022-09-27T03:24:46.722Z,11.93
2022-09-27T03:25:10.076Z,23.20
2022-09-27T03:25:34.777Z,27.73
2022-09-27T03:25:58.185Z,19.52
2022-09-27T03:26:21.086Z,17.23
2022-09-27T03:26:43.042Z,11.15
2022-09-27T03:27:06.136Z,7.85
2022-09-27T03:27:28.090Z,14.70
2022-09-27T03:27:49.881Z,12.52
2022-09-27T03:28:13.931Z,13.70
2022-09-27T03:28:36.180Z,12.40
2022-09-27T03:28:58.058Z,23.20
2022-09-27T03:29:24.498Z,23.77
2022-09-27T03:29:46.230Z,23.05
2022-09-27T03:30:08.697Z,14.90
2022-09-27T03:30:30.871Z,13.55
2022-09-27T03:30:52.978Z,12.45
2022-09-27T03:31:15.024Z,14.38
2022-09-27T03:31:37.261Z,28.52
2022-09-27T03:31:59.143Z,16.13
2022-09-27T03:32:21.109Z,11.48
2022-09-27T03:32:44.205Z,29.17
2022-09-27T03:33:06.118Z,23.10
2022-09-27T03:33:27.922Z,14.10
2022-09-27T03:33:49.785Z,23.95
2022-09-27T03:34:12.988Z,20.50
2022-09-27T03:34:34.811Z,14.68
2022-09-27T03:34:57.384Z,12.57
2022-09-27T03:35:19.410Z,16.15
2022-09-27T03:35:43.147Z,12.85
2022-09-27T03:36:05.167Z,21.75
2022-09-27T03:36:27.382Z,23.58
2022-09-27T03:36:49.522Z,19.60
2022-09-27T03:37:13.522Z,19.67
2022-09-27T03:37:35.527Z,26.95
2022-09-27T03:37:57.321Z,17.08
2022-09-27T03:38:19.157Z,21.73
2022-09-27T03:38:44.066Z,22.30
2022-09-27T03:39:08.303Z,23.20
2022-09-27T03:39:30.268Z,13.57
2022-09-27T03:39:52.127Z,19.87
2022-09-27T03:40:16.178Z,20.80
2022-09-27T03:40:38.503Z,26.80
2022-09-27T03:41:00.500Z,23.73
2022-09-27T03:41:22.597Z,18.67
2022-09-27T03:41:44.496Z,18.58
2022-09-27T03:42:06.794Z,18.58
2022-09-27T03:42:28.854Z,14.95
2022-09-27T03:42:51.149Z,13.73
2022-09-27T03:43:15.171Z,13.60
2022-09-27T03:43:37.071Z,16.40
2022-09-27T03:44:01.670Z,13.05
2022-09-27T03:44:23.883Z,10.70
2022-09-27T03:44:47.407Z,8.23
2022-09-27T03:45:09.800Z,11.77
2022-09-27T03:45:31.990Z,16.92
2022-09-27T03:45:56.295Z,15.73
2022-09-27T03:46:18.364Z,16.13
2022-09-27T03:46:40.284Z,20.05
2022-09-27T03:47:02.538Z,11.80
2022-09-27T03:47:24.527Z,11.75
2022-09-27T03:47:48.193Z,16.48
2022-09-27T03:48:10.171Z,16.38
2022-09-27T03:48:32.009Z,15.23
2022-09-27T03:48:56.732Z,19.67
2022-09-27T03:49:19.154Z,23.08
2022-09-27T03:49:41.127Z,16.85
2022-09-27T03:50:02.963Z,12.27
2022-09-27T03:50:27.109Z,23.55
2022-09-27T03:50:51.319Z,29.07
2022-09-27T03:51:13.141Z,18.85
2022-09-27T03:51:35.026Z,24.08
2022-09-27T03:51:56.892Z,26.48
2022-09-27T03:52:22.233Z,24.27
2022-09-27T03:52:47.669Z,28.48
2022-09-27T03:53:09.601Z,16.50
2022-09-27T03:53:35.770Z,25.85
2022-09-27T03:53:57.644Z,23.50
2022-09-27T03:54:20.721Z,25.40
2022-09-27T03:54:43.656Z,25.10
2022-09-27T03:55:06.320Z,24.88
2022-09-27T03:55:28.112Z,23.40
2022-09-27T03:55:50.505Z,13.53
2022-09-27T03:56:12.478Z,30.80
2022-09-27T03:56:36.643Z,22.88
2022-09-27T03:56:59.058Z,25.38
2022-09-27T03:57:20.988Z,16.40
2022-09-27T03:57:47.006Z,16.65
2022-09-27T03:58:08.899Z,23.95
2022-09-27T03:58:32.671Z,24.15
2022-09-27T03:58:54.649Z,19.17
2022-09-27T03:59:17.036Z,15.73
2022-09-27T03:59:38.937Z,16.55
2022-09-27T04:00:03.231Z,15.75
2022-09-27T04:00:25.637Z,9.13
2022-09-27T04:00:47.883Z,17.75
2022-09-27T04:01:10.312Z,20.10
2022-09-27T04:01:37.698Z,10.65
2022-09-27T04:01:59.688Z,14.25
2022-09-27T04:02:22.593Z,12.73
2022-09-27T04:02:45.019Z,22.50
2022-09-27T04:03:10.134Z,14.52
2022-09-27T04:03:32.462Z,15.60
2022-09-27T04:03:58.908Z,14.10
2022-09-27T04:04:25.147Z,11.88
2022-09-27T04:04:47.123Z,14.25
2022-09-27T04:05:12.765Z,11.13
2022-09-27T04:05:34.670Z,11.13
2022-09-27T04:05:56.686Z,9.82
2022-09-27T04:06:19.314Z,11.02
2022-09-27T04:06:43.413Z,11.70
2022-09-27T04:07:05.647Z,10.80
2022-09-27T04:07:27.504Z,9.88
2022-09-27T04:07:49.786Z,9.20
2022-09-27T04:08:12.091Z,10.27
2022-09-27T04:08:36.559Z,12.40
2022-09-27T04:08:58.363Z,16.45
2022-09-27T04:09:20.294Z,15.88
2022-09-27T04:09:47.129Z,20.80
2022-09-27T04:10:11.626Z,27.13
2022-09-27T04:10:33.883Z,17.63
2022-09-27T04:10:56.166Z,19.38
2022-09-27T04:11:18.144Z,17.67
2022-09-27T04:11:40.007Z,19.92
2022-09-27T04:12:04.516Z,14.73
2022-09-27T04:12:26.645Z,13.80
2022-09-27T04:12:48.983Z,13.18
2022-09-27T04:13:10.974Z,13.85
2022-09-27T04:13:35.774Z,14.82
2022-09-27T04:13:57.878Z,15.13
2022-09-27T04:14:20.023Z,14.18
2022-09-27T04:14:42.145Z,15.18
2022-09-27T04:15:04.261Z,13.52
2022-09-27T04:15:26.236Z,15.95
2022-09-27T04:15:52.020Z,17.20
2022-09-27T04:16:16.285Z,14.18
2022-09-27T04:16:39.151Z,11.65
2022-09-27T04:17:01.010Z,11.38
2022-09-27T04:17:23.051Z,11.30
2022-09-27T04:17:45.028Z,11.25
2022-09-27T04:18:07.346Z,13.27
2022-09-27T04:18:29.841Z,16.77
2022-09-27T04:18:52.183Z,14.27
2022-09-27T04:19:14.089Z,14.52
2022-09-27T04:19:37.230Z,12.88
2022-09-27T04:19:59.563Z,13.88
2022-09-27T04:20:21.675Z,12.70
2022-09-27T04:20:43.606Z,12.20
2022-09-27T04:21:05.904Z,12.20
2022-09-27T04:21:30.997Z,14.15
2022-09-27T04:21:54.949Z,13.40
2022-09-27T04:22:16.849Z,13.35
2022-09-27T04:22:44.080Z,13.50
2022-09-27T04:23:06.545Z,11.60
2022-09-27T04:23:30.130Z,12.40
2022-09-27T04:23:52.237Z,15.55
2022-09-27T04:24:14.171Z,12.55
2022-09-27T04:24:36.130Z,12.82
2022-09-27T04:24:59.374Z,13.57
2022-09-27T04:25:21.468Z,14.60
2022-09-27T04:25:43.550Z,14.27
2022-09-27T04:26:06.368Z,15.02
2022-09-27T04:26:28.266Z,12.80
2022-09-27T04:26:50.261Z,13.43
2022-09-27T04:27:12.970Z,17.25
2022-09-27T04:27:34.888Z,13.35
2022-09-27T04:27:56.723Z,13.45
2022-09-27T04:28:19.734Z,13.77
2022-09-27T04:28:41.720Z,13.83
2022-09-27T04:29:04.064Z,13.90
2022-09-27T04:29:25.919Z,14.00
2022-09-27T04:29:47.847Z,13.15
2022-09-27T04:30:10.418Z,13.60
2022-09-27T04:30:32.412Z,14.68
2022-09-27T04:30:54.519Z,13.43
2022-09-27T04:33:18.488Z,14.30
2022-09-27T04:33:50.370Z,13.30
2022-09-27T04:34:12.505Z,14.32
2022-09-27T04:36:07.611Z,14.25
2022-09-27T04:36:30.400Z,12.95
2022-09-27T04:36:52.632Z,14.52
2022-09-27T04:37:14.737Z,14.35
2022-09-27T04:37:45.295Z,14.32
2022-09-27T04:38:07.538Z,16.35
2022-09-27T04:38:31.194Z,14.27
2022-09-27T04:38:57.978Z,13.85
2022-09-27T04:39:20.133Z,15.82
2022-09-27T04:39:42.557Z,16.67
2022-09-27T04:40:05.540Z,15.85
2022-09-27T04:40:28.222Z,15.27
2022-09-27T04:40:52.430Z,14.07
2022-09-27T04:41:15.563Z,14.27
2022-09-27T04:41:37.931Z,14.03
2022-09-27T04:42:00.314Z,13.38
2022-09-27T04:45:23.793Z,15.13
2022-09-27T04:51:00.764Z,14.98
2022-09-27T04:51:23.682Z,13.45
2022-09-27T04:51:45.566Z,13.80
2022-09-27T04:52:07.394Z,13.30
2022-09-27T04:52:32.391Z,14.40
2022-09-27T04:52:54.753Z,13.35
2022-09-27T04:53:16.577Z,14.45
2022-09-27T04:53:41.113Z,13.57
2022-09-27T04:54:04.980Z,13.88
2022-09-27T04:54:26.962Z,15.02
2022-09-27T04:54:48.901Z,16.23
2022-09-27T04:55:11.286Z,13.70
2022-09-27T04:55:33.367Z,12.88
2022-09-27T04:55:55.729Z,13.50
2022-09-27T04:56:18.567Z,13.48
2022-09-27T04:56:43.104Z,12.70
2022-09-27T04:57:08.098Z,13.13
2022-09-27T04:57:29.935Z,13.07
2022-09-27T04:57:51.847Z,12.57
2022-09-27T04:58:16.095Z,14.02
2022-09-27T04:58:38.145Z,14.45
2022-09-27T04:59:01.117Z,15.18
2022-09-27T04:59:27.324Z,13.13
2022-09-27T04:59:51.651Z,13.15
2022-09-27T05:00:14.352Z,13.23
2022-09-27T05:00:37.630Z,12.57
2022-09-27T05:01:02.957Z,12.20
2022-09-27T05:01:25.011Z,13.15
2022-09-27T05:01:47.156Z,14.18
2022-09-27T05:02:09.437Z,14.20
2022-09-27T05:02:36.946Z,12.25
2022-09-27T05:02:59.057Z,13.35
2022-09-27T05:03:28.569Z,15.93
2022-09-27T05:03:50.383Z,14.35
2022-09-27T05:04:12.209Z,13.63
2022-09-27T05:04:34.136Z,12.85
2022-09-27T05:04:59.845Z,12.68
2022-09-27T05:05:22.130Z,14.27
2022-09-27T05:05:46.228Z,13.02
2022-09-27T05:06:10.931Z,13.20
2022-09-27T05:06:32.874Z,11.43
2022-09-27T05:06:57.223Z,11.98
2022-09-27T05:07:20.155Z,12.57
2022-09-27T05:07:42.321Z,12.43
2022-09-27T05:08:05.620Z,12.40
2022-09-27T05:08:28.051Z,12.98
2022-09-27T05:08:50.109Z,13.20
2022-09-27T05:09:13.466Z,12.57
2022-09-27T05:09:35.388Z,12.63
2022-09-27T05:09:57.165Z,13.00
2022-09-27T05:10:20.153Z,12.93
2022-09-27T05:10:45.490Z,12.23
2022-09-27T05:11:09.717Z,13.13
2022-09-27T05:11:31.758Z,13.85
2022-09-27T05:11:56.768Z,12.85
2022-09-27T05:12:18.779Z,12.15
2022-09-27T05:12:41.051Z,12.93
2022-09-27T05:13:03.090Z,12.93
2022-09-27T05:13:25.123Z,14.05
2022-09-27T05:13:48.433Z,13.88
2022-09-27T05:14:10.459Z,13.13
2022-09-27T05:14:35.085Z,14.90
2022-09-27T05:14:56.953Z,13.32
2022-09-27T05:15:24.454Z,14.25
2022-09-27T05:15:46.386Z,14.02
2022-09-27T05:16:11.460Z,14.38
2022-09-27T05:16:34.483Z,15.20
2022-09-27T05:16:56.541Z,14.52
2022-09-27T05:17:22.390Z,15.77
2022-09-27T05:17:46.922Z,14.65
2022-09-27T05:18:11.292Z,12.52
2022-09-27T05:18:34.233Z,13.80
2022-09-27T05:18:57.900Z,13.50
2022-09-27T05:19:20.012Z,12.65
2022-09-27T05:19:43.311Z,14.60
2022-09-27T05:20:06.951Z,14.52
2022-09-27T05:20:29.135Z,14.10
2022-09-27T05:20:51.078Z,15.30
2022-09-27T05:21:14.963Z,15.75
2022-09-27T05:21:36.801Z,15.48
2022-09-27T05:22:01.006Z,14.70
2022-09-27T05:22:22.785Z,13.95
2022-09-27T05:22:44.573Z,13.48
2022-09-27T05:23:08.976Z,13.23
2022-09-27T05:23:31.133Z,14.48
2022-09-27T05:23:54.164Z,14.07
2022-09-27T05:24:16.022Z,13.27
2022-09-27T05:24:39.471Z,14.32
2022-09-27T05:25:01.504Z,16.40
2022-09-27T05:25:23.389Z,15.20
2022-09-27T05:25:46.062Z,15.30
2022-09-27T05:26:08.117Z,13.85
2022-09-27T05:26:29.985Z,13.63
2022-09-27T05:26:54.250Z,15.93
2022-09-27T05:27:22.355Z,15.73
2022-09-27T05:27:44.636Z,13.88
2022-09-27T05:28:09.665Z,12.70
2022-09-27T05:28:35.599Z,15.18
2022-09-27T05:28:57.578Z,16.00
2022-09-27T05:29:19.666Z,17.02
2022-09-27T05:29:42.361Z,15.32
2022-09-27T05:30:06.064Z,15.25
2022-09-27T05:30:29.077Z,14.25
2022-09-27T05:30:51.086Z,15.27
2022-09-27T05:31:14.749Z,17.30
2022-09-27T05:31:36.813Z,15.75
2022-09-27T05:31:58.811Z,16.17
2022-09-27T05:32:21.701Z,16.25
2022-09-27T05:32:45.582Z,14.27
2022-09-27T05:33:07.627Z,16.13
2022-09-27T05:33:34.473Z,16.45
2022-09-27T05:34:27.121Z,13.35
2022-09-27T05:34:54.799Z,15.15
2022-09-27T05:35:20.795Z,13.40
2022-09-27T05:35:47.880Z,15.18
2022-09-27T05:36:12.147Z,14.10
2022-09-27T05:36:44.176Z,15.35
2022-09-27T05:37:06.532Z,15.07
2022-09-27T05:37:34.244Z,13.38
2022-09-27T05:38:00.365Z,15.13
2022-09-27T05:38:22.907Z,14.07
2022-09-27T05:38:44.755Z,13.23
2022-09-27T05:39:07.318Z,14.35
2022-09-27T05:39:32.242Z,14.98
2022-09-27T05:39:56.379Z,14.00
2022-09-27T05:40:39.571Z,14.13
2022-09-27T05:41:01.703Z,13.90
2022-09-27T05:41:24.312Z,12.88
2022-09-27T05:42:15.410Z,13.77
2022-09-27T05:42:41.085Z,13.98
2022-09-27T05:43:03.367Z,14.23
2022-09-27T05:43:25.482Z,13.75
2022-09-27T05:43:47.725Z,14.63
2022-09-27T05:44:13.297Z,15.70
2022-09-27T05:44:35.598Z,14.88
2022-09-27T05:45:00.244Z,13.00
2022-09-27T05:45:24.132Z,14.60
2022-09-27T05:45:46.242Z,13.75
2022-09-27T05:46:08.368Z,13.43
2022-09-27T05:46:34.109Z,14.15
2022-09-27T05:46:56.241Z,14.13
2022-09-27T05:47:18.343Z,12.52
2022-09-27T05:47:56.722Z,12.32
2022-09-27T05:48:19.038Z,11.93
2022-09-27T05:48:44.089Z,12.60
2022-09-27T05:49:06.698Z,13.82
2022-09-27T05:49:28.886Z,13.50
2022-09-27T05:49:52.244Z,11.25
2022-09-27T05:50:14.149Z,12.45
2022-09-27T05:50:36.224Z,13.30
2022-09-27T05:50:58.467Z,12.27
2022-09-27T05:51:21.424Z,12.48
2022-09-27T05:51:43.535Z,12.52
2022-09-27T05:52:05.353Z,12.10
2022-09-27T05:52:28.638Z,12.30
2022-09-27T05:52:50.820Z,11.00
2022-09-27T05:53:13.517Z,10.18
2022-09-27T05:53:36.571Z,11.70
2022-09-27T05:53:58.616Z,13.02
2022-09-27T05:54:23.142Z,12.82
2022-09-27T05:54:45.608Z,11.32
2022-09-27T05:55:07.930Z,10.93
2022-09-27T05:55:30.198Z,10.27
2022-09-27T05:55:51.971Z,12.50
2022-09-27T05:56:13.826Z,12.75
2022-09-27T05:56:35.664Z,10.70
2022-09-27T05:57:08.128Z,11.43
2022-09-27T05:57:30.035Z,10.88
2022-09-27T05:58:11.004Z,11.35
2022-09-27T05:58:34.929Z,10.35
2022-09-27T05:59:00.776Z,9.55
2022-09-27T05:59:33.235Z,9.85
2022-09-27T05:59:55.108Z,8.52
2022-09-27T06:00:17.934Z,8.93
2022-09-27T06:00:39.723Z,8.48
2022-09-27T06:01:01.579Z,8.40
2022-09-27T06:01:28.236Z,8.13
2022-09-27T06:01:52.985Z,7.97
2022-09-27T06:02:14.850Z,8.50
2022-09-27T06:02:40.098Z,9.13
2022-09-27T06:03:04.850Z,8.75
2022-09-27T06:03:26.708Z,8.10